Time;durP1;ratioP1;P1;durP2;ratioP2;P2;SDS_P1;SDS_P2;PMS_P1;PMS_P2;Temp;Humidity;BMP_temperature;BMP_pressure;BME280_temperature;BME280_humidity;BME280_pressure;Samples;Min_cycle;Max_cycle;Signal;HPM_P1;HPM_P2
2022/08/20 00:00:35;;;;;;;27.35;19.40;;;;;;;20.14;76.20;101094.25;4969819;28;20027;-71
2022/08/20 00:03:13;;;;;;;28.70;18.73;;;;;;;20.24;75.87;101095.50;4961427;28;20027;-71
2022/08/20 00:05:43;;;;;;;29.55;20.08;;;;;;;20.24;75.29;101100.16;4949577;28;20027;-71
2022/08/20 00:08:10;;;;;;;26.45;19.05;;;;;;;20.17;75.69;101089.19;4965800;28;20027;-71
2022/08/20 00:10:38;;;;;;;25.08;18.98;;;;;;;20.06;76.13;101082.44;4958613;28;20030;-71
2022/08/20 00:13:06;;;;;;;23.40;18.83;;;;;;;20.05;76.07;101085.41;4958834;28;20122;-71
2022/08/20 00:15:34;;;;;;;23.02;18.80;;;;;;;20.04;76.35;101090.06;4960946;28;20134;-71
2022/08/20 00:18:00;;;;;;;22.75;16.63;;;;;;;20.05;75.89;101085.41;4963708;28;20031;-71
2022/08/20 00:20:30;;;;;;;24.05;17.00;;;;;;;20.02;75.58;101085.84;4964271;28;20078;-71
2022/08/20 00:22:56;;;;;;;20.70;15.48;;;;;;;20.03;74.95;101082.03;4959357;28;20031;-71
2022/08/20 00:25:23;;;;;;;19.35;14.15;;;;;;;19.93;74.75;101081.63;4971632;28;20023;-71
2022/08/20 00:27:49;;;;;;;21.50;14.35;;;;;;;20.02;74.66;101085.84;4963351;28;20027;-71
2022/08/20 00:30:15;;;;;;;18.00;14.10;;;;;;;20.04;73.97;101083.72;4965598;28;20023;-71
2022/08/20 00:32:53;;;;;;;18.75;12.73;;;;;;;20.01;73.97;101089.63;4962316;28;20026;-70
2022/08/20 00:35:22;;;;;;;22.10;12.73;;;;;;;20.01;73.83;101087.72;4950808;28;20019;-71
2022/08/20 00:37:47;;;;;;;16.17;12.63;;;;;;;20.02;73.74;101100.44;4956524;28;20479;-70
2022/08/20 00:40:16;;;;;;;19.85;11.77;;;;;;;20.10;72.87;101093.88;4965317;28;20023;-71
2022/08/20 00:42:44;;;;;;;18.10;12.52;;;;;;;20.12;73.04;101091.75;4964413;28;20027;-71
2022/08/20 00:45:11;;;;;;;17.83;12.05;;;;;;;20.27;72.46;101094.22;4959710;28;20035;-71
2022/08/20 00:47:40;;;;;;;17.83;10.85;;;;;;;20.33;72.41;101094.19;4968967;28;20045;-71
2022/08/20 00:50:06;;;;;;;17.83;12.45;;;;;;;20.43;72.08;101087.41;4954764;28;20041;-71
2022/08/20 00:52:32;;;;;;;17.92;12.45;;;;;;;20.42;71.83;101091.22;4952859;28;20118;-71
2022/08/20 00:55:01;;;;;;;17.42;11.88;;;;;;;20.50;71.34;101093.75;4967764;28;20134;-71
2022/08/20 00:57:35;;;;;;;14.30;10.93;;;;;;;20.49;71.52;101092.91;4962057;28;20103;-70
2022/08/20 01:00:08;;;;;;;15.80;12.07;;;;;;;20.50;71.63;101088.25;4959255;28;20526;-71
2022/08/20 01:02:34;;;;;;;13.80;11.07;;;;;;;20.43;71.96;101077.25;4957843;28;20027;-71
2022/08/20 01:05:00;;;;;;;17.75;12.90;;;;;;;20.38;71.87;101084.47;4967480;28;20117;-71
2022/08/20 01:07:35;;;;;;;18.63;11.82;;;;;;;20.38;72.02;101078.97;4959030;28;20114;-71
2022/08/20 01:10:15;;;;;;;15.23;11.25;;;;;;;20.43;71.82;101087.41;4962901;28;20066;-71
2022/08/20 01:12:45;;;;;;;12.77;10.88;;;;;;;20.38;71.87;101089.97;4962880;28;20031;-71
2022/08/20 01:15:14;;;;;;;18.17;11.32;;;;;;;20.40;71.56;101093.31;4960520;28;20341;-71
2022/08/20 01:17:44;;;;;;;14.60;11.38;;;;;;;20.53;71.47;101087.81;4969160;28;20022;-71
2022/08/20 01:20:20;;;;;;;16.85;11.25;;;;;;;20.56;70.92;101087.38;4954360;28;20023;-71
2022/08/20 01:25:47;;;;;;;16.10;11.07;;;;;;;20.51;71.25;101084.44;4960798;28;20044;-71
2022/08/20 01:28:16;;;;;;;13.23;10.80;;;;;;;20.63;71.10;101082.69;4962009;28;20023;-71
2022/08/20 01:30:42;;;;;;;17.45;10.60;;;;;;;20.61;70.98;101093.09;4965940;28;20027;-71
2022/08/20 01:33:08;;;;;;;15.05;11.15;;;;;;;20.53;71.29;101087.81;4957098;28;20027;-71
2022/08/20 01:35:40;;;;;;;14.77;10.70;;;;;;;20.46;71.54;101100.75;4966930;28;20023;-70
2022/08/20 01:38:06;;;;;;;15.52;11.57;;;;;;;20.37;71.91;101093.78;4963959;28;20027;-70
2022/08/20 01:40:41;;;;;;;15.20;10.93;;;;;;;20.37;72.05;101088.28;4966870;28;20038;-71
2022/08/20 01:43:08;;;;;;;12.63;9.95;;;;;;;20.48;71.69;101096.72;4974408;28;20035;-71
2022/08/20 01:45:35;;;;;;;14.15;10.18;;;;;;;20.20;72.58;101102.50;4959736;28;20038;-71
2022/08/20 01:48:01;;;;;;;12.20;10.02;;;;;;;20.00;73.32;101094.28;4969758;28;20026;-71
2022/08/20 01:50:29;;;;;;;15.18;9.98;;;;;;;20.04;73.19;101111.22;4964897;28;20031;-72
2022/08/20 01:53:03;;;;;;;13.63;9.25;;;;;;;20.10;72.82;101107.63;4965627;28;20038;-71
2022/08/20 01:55:30;;;;;;;11.30;8.70;;;;;;;20.24;72.03;101106.50;4965726;28;20027;-71
2022/08/20 01:57:56;;;;;;;10.75;8.63;;;;;;;20.38;71.71;101111.97;4972082;28;20018;-71
2022/08/20 02:00:23;;;;;;;12.48;9.05;;;;;;;20.38;71.80;101117.47;4965099;28;20023;-71
2022/08/20 02:02:49;;;;;;;15.05;8.35;;;;;;;20.42;71.61;101118.72;4969802;28;20023;-71
2022/08/20 02:05:16;;;;;;;12.13;8.73;;;;;;;20.35;71.73;101115.16;4965292;28;20034;-70
2022/08/20 02:07:41;;;;;;;14.82;8.65;;;;;;;19.98;73.64;101103.81;4963958;28;20023;-71
2022/08/20 02:10:09;;;;;;;9.57;8.23;;;;;;;20.05;73.17;101112.91;4965091;28;20058;-71
2022/08/20 02:12:36;;;;;;;11.32;8.02;;;;;;;20.15;72.69;101113.31;4968676;28;20022;-71
2022/08/20 02:15:03;;;;;;;10.15;8.07;;;;;;;20.13;72.72;101115.41;4961537;28;20022;-71
2022/08/20 02:17:29;;;;;;;9.65;8.63;;;;;;;20.26;72.64;101120.88;4958884;28;20027;-71
2022/08/20 02:20:02;;;;;;;10.43;7.13;;;;;;;20.19;73.10;101109.06;4967824;28;20038;-72
2022/08/20 02:22:53;;;;;;;11.48;8.35;;;;;;;20.30;72.97;101111.16;4961305;28;20083;-71
2022/08/20 02:25:21;;;;;;;11.50;8.80;;;;;;;20.33;72.34;101110.69;4970395;28;20031;-72
2022/08/20 02:30:19;;;;;;;9.30;7.22;;;;;;;20.40;72.58;101123.59;4971113;28;20069;-71
2022/08/20 02:32:45;;;;;;;10.27;7.55;;;;;;;20.06;73.85;101111.84;4966108;28;20444;-70
2022/08/20 02:35:12;;;;;;;12.00;8.27;;;;;;;19.77;74.36;101116.75;4970183;28;20054;-70
2022/08/20 02:37:40;;;;;;;14.05;7.88;;;;;;;19.77;75.13;101122.25;4959893;28;20022;-70
2022/08/20 02:40:09;;;;;;;10.93;7.80;;;;;;;19.86;74.97;101122.03;4963750;28;20027;-70
2022/08/20 02:42:35;;;;;;;12.20;7.78;;;;;;;19.98;74.55;101107.41;4963686;28;20027;-70
2022/08/20 02:45:03;;;;;;;10.25;7.18;;;;;;;20.02;74.27;101102.34;4971253;28;20035;-70
2022/08/20 02:47:28;;;;;;;12.77;7.70;;;;;;;20.02;74.00;101107.84;4963967;28;20019;-70
2022/08/20 02:49:54;;;;;;;10.55;8.43;;;;;;;20.04;73.79;101100.22;4969652;28;20540;-70
2022/08/20 02:52:20;;;;;;;9.95;7.70;;;;;;;20.09;73.47;101097.69;4964390;28;20413;-71
2022/08/20 02:54:47;;;;;;;11.32;8.52;;;;;;;20.16;73.19;101108.66;4954343;28;20111;-70
2022/08/20 02:57:15;;;;;;;17.80;8.30;;;;;;;20.14;73.31;101110.75;4955739;28;20015;-70
2022/08/20 02:59:42;;;;;;;10.23;8.10;;;;;;;19.90;74.69;101115.06;4953969;28;20023;-71
2022/08/20 03:02:08;;;;;;;15.10;7.57;;;;;;;19.93;74.58;101109.13;4963651;28;20065;-71
2022/08/20 03:04:33;;;;;;;10.50;7.50;;;;;;;19.94;74.14;101116.28;4959937;28;20066;-71
2022/08/20 03:06:58;;;;;;;17.20;9.70;;;;;;;19.81;74.40;101113.56;4970287;28;20019;-71
2022/08/20 03:09:24;;;;;;;9.65;8.48;;;;;;;19.88;73.68;101111.66;4967704;28;20027;-71
2022/08/20 03:11:50;;;;;;;12.60;8.20;;;;;;;20.03;73.55;101109.53;4973015;28;20062;-70
2022/08/20 03:14:15;;;;;;;11.40;7.80;;;;;;;20.11;73.34;101111.19;4965262;28;20023;-72
2022/08/20 03:16:42;;;;;;;12.93;8.30;;;;;;;20.18;73.08;101107.38;4963367;28;20086;-71
2022/08/20 03:19:07;;;;;;;12.23;8.68;;;;;;;20.09;72.83;101105.94;4965500;28;20748;-71
2022/08/20 03:21:34;;;;;;;17.40;10.95;;;;;;;20.10;72.97;101104.88;4961947;28;20023;-72
2022/08/20 03:23:59;;;;;;;20.48;12.43;;;;;;;19.92;73.71;101107.44;4968331;28;20106;-71
2022/08/20 03:26:25;;;;;;;11.20;8.70;;;;;;;19.83;74.91;101115.06;4964362;28;20113;-72
2022/08/20 03:28:51;;;;;;;17.30;12.18;;;;;;;19.84;74.70;101107.66;4957601;28;20063;-72
2022/08/20 03:31:17;;;;;;;21.45;12.68;;;;;;;19.83;75.17;101108.72;4966785;28;20026;-71
2022/08/20 03:33:43;;;;;;;22.42;16.33;;;;;;;19.90;74.91;101107.66;4964054;28;20023;-71
2022/08/20 03:36:08;;;;;;;21.85;15.02;;;;;;;19.99;74.69;101113.75;4968472;28;20030;-71
2022/08/20 03:38:34;;;;;;;20.00;11.45;;;;;;;19.94;74.82;101110.81;4960900;28;20019;-71
2022/08/20 03:41:00;;;;;;;25.90;14.35;;;;;;;19.91;75.12;101122.25;4957988;28;20059;-71
2022/08/20 03:43:26;;;;;;;13.73;10.00;;;;;;;19.85;75.42;101117.59;4961931;28;20043;-72
2022/08/20 03:45:51;;;;;;;20.35;13.18;;;;;;;19.93;74.99;101120.09;4973038;28;20124;-71
2022/08/20 03:48:19;;;;;;;21.85;13.23;;;;;;;19.83;75.92;101125.22;4973577;28;20031;-71
2022/08/20 03:50:45;;;;;;;27.90;18.42;;;;;;;19.64;77.82;101133.25;4974521;28;20503;-71
2022/08/20 03:53:12;;;;;;;34.22;21.85;;;;;;;19.60;78.41;101126.47;4958750;28;20110;-71
2022/08/20 03:55:40;;;;;;;33.28;21.23;;;;;;;19.70;78.11;101132.41;4960503;28;20413;-71
2022/08/20 03:58:09;;;;;;;26.60;18.50;;;;;;;19.79;77.78;101136.63;4962292;28;20015;-72
2022/08/20 04:00:46;;;;;;;28.70;19.45;;;;;;;19.74;78.04;101132.81;4965785;28;20085;-70
2022/08/20 04:03:12;;;;;;;28.63;16.63;;;;;;;20.03;76.65;101148.00;4973116;28;20433;-70
2022/08/20 04:05:40;;;;;;;27.08;16.27;;;;;;;20.16;76.25;101148.00;4960853;28;20057;-70
2022/08/20 04:08:18;;;;;;;27.45;18.33;;;;;;;20.15;76.98;101157.31;4965739;28;20058;-71
2022/08/20 04:10:45;;;;;;;27.23;16.60;;;;;;;20.10;77.01;101154.34;4965444;28;20066;-71
2022/08/20 04:13:12;;;;;;;37.17;21.70;;;;;;;19.97;79.00;101155.22;4963568;28;20044;-70
2022/08/20 04:15:38;;;;;;;31.83;21.33;;;;;;;19.92;79.03;101151.41;4955613;28;20485;-71
2022/08/20 04:18:09;;;;;;;33.42;20.13;;;;;;;20.07;78.84;101160.25;4957785;28;20019;-71
2022/08/20 04:20:36;;;;;;;29.40;18.70;;;;;;;20.29;78.13;101158.97;4972333;28;20038;-70
2022/08/20 04:23:03;;;;;;;31.33;19.80;;;;;;;20.08;79.30;101156.44;4963315;28;20038;-70
2022/08/20 04:25:30;;;;;;;29.40;20.95;;;;;;;20.11;79.10;101161.53;4965684;28;20019;-70
2022/08/20 04:28:01;;;;;;;38.00;21.98;;;;;;;19.97;80.21;101159.88;4959805;28;20033;-70
2022/08/20 04:30:28;;;;;;;32.83;21.23;;;;;;;20.19;79.63;101158.53;4955436;28;20027;-71
2022/08/20 04:32:54;;;;;;;39.25;20.10;;;;;;;20.10;80.24;101154.34;4963804;28;20027;-71
2022/08/20 04:35:23;;;;;;;36.00;20.40;;;;;;;20.30;79.61;101160.66;4964860;28;20031;-71
2022/08/20 04:37:56;;;;;;;34.17;20.42;;;;;;;19.94;81.90;101149.28;4962243;28;20031;-71
2022/08/20 04:43:06;;;;;;;33.55;19.85;;;;;;;20.14;81.33;101155.59;4966985;28;20019;-72
2022/08/20 04:45:32;;;;;;;38.80;21.38;;;;;;;20.08;81.88;101159.19;4964787;28;20115;-71
2022/08/20 04:48:05;;;;;;;26.98;18.75;;;;;;;20.23;81.30;101162.56;4969854;28;20019;-71
2022/08/20 04:50:35;;;;;;;29.27;17.67;;;;;;;20.20;81.65;101160.22;4961966;28;20019;-71
2022/08/20 04:53:06;;;;;;;26.30;17.25;;;;;;;20.05;82.45;101162.38;4962139;28;20026;-71
2022/08/20 04:55:34;;;;;;;24.92;17.23;;;;;;;20.01;82.73;101166.59;4954943;28;20019;-71
2022/08/20 04:58:11;;;;;;;34.25;17.83;;;;;;;20.32;81.53;101169.50;4962064;28;20556;-71
2022/08/20 05:00:37;;;;;;;28.50;16.45;;;;;;;20.32;81.62;101164.00;4962361;28;20026;-72
2022/08/20 05:03:05;;;;;;;32.38;16.88;;;;;;;20.25;82.00;101162.34;4955638;28;20055;-71
2022/08/20 05:05:33;;;;;;;22.75;15.20;;;;;;;20.36;82.04;101160.84;4965712;28;20078;-71
2022/08/20 05:08:00;;;;;;;21.58;15.40;;;;;;;20.17;82.69;101171.66;4969169;28;20130;-71
2022/08/20 05:10:27;;;;;;;26.13;15.52;;;;;;;20.06;83.27;101164.06;4975600;28;20053;-71
2022/08/20 05:12:52;;;;;;;22.73;15.90;;;;;;;20.07;83.59;101165.75;4974800;28;20045;-70
2022/08/20 05:15:18;;;;;;;27.27;16.30;;;;;;;20.17;83.06;101171.66;4971871;28;20023;-69
2022/08/20 05:17:43;;;;;;;23.65;16.20;;;;;;;20.09;83.35;101173.81;4971276;28;20010;-72
2022/08/20 05:20:15;;;;;;;22.55;15.00;;;;;;;20.22;82.80;101168.28;4972057;28;20031;-70
2022/08/20 05:22:41;;;;;;;22.15;13.95;;;;;;;20.13;83.11;101167.66;4963833;28;20022;-71
2022/08/20 05:25:07;;;;;;;22.63;15.73;;;;;;;20.01;83.72;101161.09;4975543;28;21350;-71
2022/08/20 05:27:32;;;;;;;26.92;16.45;;;;;;;20.07;83.58;101165.75;4974682;28;20039;-71
2022/08/20 05:30:09;;;;;;;28.98;14.93;;;;;;;20.41;81.87;101166.53;4958773;28;20038;-72
2022/08/20 05:32:35;;;;;;;22.65;15.98;;;;;;;20.30;81.68;101171.66;4970635;28;20026;-71
2022/08/20 05:35:04;;;;;;;26.05;17.20;;;;;;;20.08;82.62;101164.69;4966633;28;20114;-71
2022/08/20 05:37:30;;;;;;;23.48;15.05;;;;;;;20.21;82.17;101170.19;4975032;28;20158;-71
2022/08/20 05:39:55;;;;;;;22.13;15.65;;;;;;;20.32;81.98;101175.00;4966030;28;20117;-71
2022/08/20 05:42:21;;;;;;;31.63;17.45;;;;;;;20.11;83.24;101172.53;4966558;28;20030;-71
2022/08/20 05:44:46;;;;;;;26.48;17.75;;;;;;;20.10;83.51;101181.84;4959239;28;20505;-71
2022/08/20 05:47:13;;;;;;;26.27;17.17;;;;;;;20.04;83.56;101172.53;4974556;28;20023;-70
2022/08/20 05:49:38;;;;;;;29.17;19.20;;;;;;;20.07;83.57;101179.50;4967501;28;20027;-72
2022/08/20 05:52:05;;;;;;;28.58;18.17;;;;;;;20.16;83.32;101186.47;4972442;28;20030;-72
2022/08/20 05:54:31;;;;;;;21.90;16.23;;;;;;;20.26;82.83;101175.88;4966944;28;20030;-71
2022/08/20 05:56:57;;;;;;;29.95;18.45;;;;;;;20.40;82.09;101193.19;4969830;28;20025;-72
2022/08/20 05:59:24;;;;;;;26.92;17.73;;;;;;;20.49;81.55;101191.09;4966479;28;20112;-72
2022/08/20 06:01:50;;;;;;;28.05;18.80;;;;;;;20.35;81.81;101189.41;4967055;28;20047;-71
2022/08/20 06:04:25;;;;;;;28.33;18.60;;;;;;;20.00;83.20;101181.41;4955376;28;20050;-71
2022/08/20 06:06:53;;;;;;;27.45;19.02;;;;;;;19.92;83.69;101192.63;4969893;28;20144;-70
2022/08/20 06:09:21;;;;;;;37.72;18.90;;;;;;;20.04;83.18;101182.69;4967548;28;20023;-71
2022/08/20 06:11:47;;;;;;;37.45;19.63;;;;;;;20.08;82.59;101177.59;4965100;28;20043;-70
2022/08/20 06:14:15;;;;;;;30.67;19.40;;;;;;;20.07;82.96;101182.25;4956093;28;20034;-70
2022/08/20 06:16:41;;;;;;;27.83;18.63;;;;;;;20.23;82.36;101176.31;4974356;28;20113;-71
2022/08/20 06:19:06;;;;;;;23.90;17.77;;;;;;;20.38;81.96;101188.97;4974346;28;20106;-71
2022/08/20 06:21:32;;;;;;;22.27;16.52;;;;;;;20.55;81.39;101190.25;4974868;28;20535;-71
2022/08/20 06:23:57;;;;;;;28.25;16.75;;;;;;;20.57;80.94;101188.94;4973530;28;20030;-70
2022/08/20 06:26:23;;;;;;;24.23;16.38;;;;;;;20.46;81.53;101180.50;4972929;28;20046;-71
2022/08/20 06:28:48;;;;;;;32.35;19.33;;;;;;;20.20;82.78;101184.97;4973502;28;20034;-71
2022/08/20 06:31:13;;;;;;;28.45;18.50;;;;;;;20.21;83.02;101191.31;4963796;28;20078;-71
2022/08/20 06:33:39;;;;;;;29.25;17.48;;;;;;;20.38;82.34;101194.47;4970319;28;20110;-71
2022/08/20 06:36:05;;;;;;;32.13;22.75;;;;;;;20.44;82.40;101194.47;4960426;28;20470;-71
2022/08/20 06:38:31;;;;;;;21.02;16.02;;;;;;;20.65;81.47;101181.50;4969681;28;20030;-71
2022/08/20 06:40:57;;;;;;;27.85;15.65;;;;;;;20.71;80.88;101178.72;4972853;28;20050;-71
2022/08/20 06:43:23;;;;;;;32.70;15.68;;;;;;;20.94;79.62;101189.25;4963870;28;20027;-70
2022/08/20 06:45:48;;;;;;;22.02;15.73;;;;;;;20.70;80.18;101190.81;4972270;28;20381;-71
2022/08/20 06:48:14;;;;;;;24.77;16.40;;;;;;;20.61;81.05;101186.63;4973702;28;20027;-71
2022/08/20 06:50:42;;;;;;;24.35;15.55;;;;;;;20.68;80.82;101187.44;4973811;28;20090;-71
2022/08/20 06:53:10;;;;;;;23.58;14.90;;;;;;;20.81;80.59;101190.13;4961375;28;20026;-71
2022/08/20 06:55:38;;;;;;;22.98;16.05;;;;;;;20.72;80.74;101196.94;4957623;28;20033;-71
2022/08/20 06:58:07;;;;;;;19.70;14.48;;;;;;;20.90;80.74;101198.16;4964990;28;20019;-71
2022/08/20 07:00:34;;;;;;;22.20;14.10;;;;;;;21.01;80.39;101200.22;4967625;28;20039;-71
2022/08/20 07:03:03;;;;;;;19.10;12.98;;;;;;;21.03;80.35;101209.09;4964828;28;20042;-70
2022/08/20 07:05:31;;;;;;;18.33;13.55;;;;;;;21.05;80.13;101201.44;4964213;28;20113;-70
2022/08/20 07:07:58;;;;;;;17.98;11.68;;;;;;;21.19;79.99;101208.59;4964026;28;20062;-70
2022/08/20 07:10:28;;;;;;;18.58;12.50;;;;;;;21.27;79.54;101202.84;4970557;28;20027;-71
2022/08/20 07:12:53;;;;;;;19.35;12.40;;;;;;;21.34;78.84;101211.94;4970664;28;20106;-70
2022/08/20 07:15:21;;;;;;;19.75;11.50;;;;;;;21.49;78.20;101213.53;4972940;28;20109;-71
2022/08/20 07:17:50;;;;;;;15.10;12.25;;;;;;;21.63;77.63;101209.59;4964634;28;20458;-72
2022/08/20 07:20:15;;;;;;;15.25;10.90;;;;;;;21.61;77.32;101211.75;4965031;28;20088;-71
2022/08/20 07:22:42;;;;;;;16.83;8.82;;;;;;;21.85;76.38;101219.22;4969996;28;20128;-71
2022/08/20 07:25:11;;;;;;;16.67;10.82;;;;;;;21.65;76.79;101221.28;4974061;28;20055;-70
2022/08/20 07:27:37;;;;;;;16.63;9.13;;;;;;;21.90;75.96;101213.84;4964861;28;20070;-71
2022/08/20 07:32:53;;;;;;;9.93;7.18;;;;;;;21.91;74.48;101223.00;4957933;28;20085;-69
2022/08/20 07:35:19;;;;;;;13.55;7.65;;;;;;;22.02;73.21;101218.63;4959114;28;20018;-72
2022/08/20 07:37:48;;;;;;;16.63;8.55;;;;;;;21.79;74.84;101222.84;4956746;28;20051;-69
2022/08/20 07:40:29;;;;;;;12.02;7.43;;;;;;;22.04;74.15;101224.75;4956546;28;20033;-70
2022/08/20 07:42:56;;;;;;;14.25;7.22;;;;;;;22.15;72.97;101235.09;4962231;28;20390;-71
2022/08/20 07:45:22;;;;;;;13.68;5.95;;;;;;;22.44;72.31;101234.41;4965960;28;20484;-70
2022/08/20 07:47:52;;;;;;;12.40;6.03;;;;;;;22.74;71.02;101223.44;4964569;28;20134;-70
2022/08/20 07:50:21;;;;;;;9.40;5.47;;;;;;;22.90;70.13;101226.72;4948830;28;20019;-72
2022/08/20 07:52:47;;;;;;;14.35;5.68;;;;;;;22.80;70.12;101221.69;4964819;28;20093;-71
2022/08/20 07:55:15;;;;;;;12.07;5.63;;;;;;;22.48;71.53;101224.56;4965510;28;20023;-71
2022/08/20 07:57:42;;;;;;;12.52;6.32;;;;;;;22.79;70.35;101233.81;4956379;28;20049;-71
2022/08/20 08:00:10;;;;;;;10.43;4.53;;;;;;;23.11;68.78;101233.66;4965515;28;20027;-72
2022/08/20 08:03:01;;;;;;;8.65;4.55;;;;;;;23.73;67.01;101237.03;5122680;27;20143;-72
2022/08/20 08:06:00;;;;;;;10.73;5.37;;;;;;;23.36;67.41;101239.91;4931994;28;4890390;-71
2022/08/20 08:08:33;;;;;;;8.40;4.10;;;;;;;22.79;68.62;101236.56;5081360;28;20040;-72
2022/08/20 08:11:01;;;;;;;8.10;4.20;;;;;;;22.90;67.84;101246.88;5071430;28;20020;-72
2022/08/20 08:13:34;;;;;;;9.57;4.80;;;;;;;22.79;68.62;101247.59;5071529;28;20052;-70
2022/08/20 08:16:03;;;;;;;10.80;4.40;;;;;;;22.55;69.96;101254.03;5078069;28;20031;-71
2022/08/20 08:18:36;;;;;;;13.43;4.40;;;;;;;22.48;70.29;101262.38;5082643;28;20021;-71
2022/08/20 08:21:04;;;;;;;10.82;4.13;;;;;;;23.09;68.44;101252.41;5075367;28;20035;-71
2022/08/20 08:23:34;;;;;;;10.18;3.22;;;;;;;23.42;64.85;101252.78;5076135;28;20069;-72
2022/08/20 08:26:02;;;;;;;16.50;4.80;;;;;;;23.25;67.26;101263.63;5077923;28;20119;-72
2022/08/20 08:28:31;;;;;;;10.07;4.70;;;;;;;23.07;67.71;101265.56;5074282;28;20088;-72
2022/08/20 08:30:57;;;;;;;14.02;4.32;;;;;;;22.78;67.92;101259.72;5076712;28;20083;-72
2022/08/20 08:33:27;;;;;;;10.98;3.17;;;;;;;22.73;66.56;101254.03;5081740;28;20024;-72
2022/08/20 08:36:02;;;;;;;13.20;3.85;;;;;;;23.08;65.38;101236.88;5077341;28;20562;-72
2022/08/20 08:38:33;;;;;;;7.07;3.83;;;;;;;22.79;66.60;101244.84;5074475;28;20024;-72
2022/08/20 08:41:18;;;;;;;11.10;3.40;;;;;;;23.00;66.51;101243.56;5080446;28;20051;-73
2022/08/20 08:43:47;;;;;;;11.98;3.20;;;;;;;23.28;65.01;101251.28;5076759;28;20508;-71
2022/08/20 08:46:20;;;;;;;7.03;3.10;;;;;;;23.16;63.85;101247.63;5060648;28;20099;-73
2022/08/20 08:48:54;;;;;;;9.23;3.20;;;;;;;23.14;63.93;101249.75;5079138;28;20021;-72
2022/08/20 08:51:28;;;;;;;10.60;3.83;;;;;;;23.16;63.36;101258.69;5069779;28;20017;-70
2022/08/20 08:53:56;;;;;;;9.85;3.28;;;;;;;23.16;63.57;101261.44;5067786;28;20107;-72
2022/08/20 08:56:24;;;;;;;12.20;3.83;;;;;;;23.18;63.60;101256.50;5071217;28;20016;-72
2022/08/20 08:58:50;;;;;;;11.70;3.40;;;;;;;23.61;62.66;101261.03;5071860;28;20024;-72
2022/08/20 09:01:20;;;;;;;8.82;3.50;;;;;;;23.62;62.68;101263.59;5073757;28;20025;-73
2022/08/20 09:03:51;;;;;;;8.45;3.22;;;;;;;23.61;61.25;101263.81;5076419;28;20016;-73
2022/08/20 09:06:41;;;;;;;10.77;3.38;;;;;;;23.90;61.66;101265.72;5061716;28;20025;-74
2022/08/20 09:10:07;;;;;;;6.78;2.97;;;;;;;23.55;62.33;101268.34;5067701;28;20032;-72
2022/08/20 09:12:54;;;;;;;7.57;2.35;;;;;;;23.61;57.70;101266.56;5069635;28;20016;-72
2022/08/20 09:15:32;;;;;;;7.13;2.25;;;;;;;23.86;57.14;101270.00;5058756;28;20162;-72
2022/08/20 09:18:32;;;;;;;11.60;2.50;;;;;;;23.77;56.82;101265.91;5045158;28;20039;-72
2022/08/20 09:21:39;;;;;;;;;;;;;;;;;;;;;
2022/08/20 09:24:50;;;;;;;7.07;2.70;;;;;;;24.09;56.42;101288.59;5068251;28;20090;-72
2022/08/20 09:28:03;;;;;;;6.22;2.47;;;;;;;24.40;55.80;101273.63;5039947;28;20202;-72
2022/08/20 09:31:02;;;;;;;10.23;2.45;;;;;;;23.91;53.47;101272.06;4995654;28;20034;-72
2022/08/20 09:34:12;;;;;;;7.88;2.42;;;;;;;23.80;54.22;101282.03;5006306;28;20076;-73
2022/08/20 09:36:43;;;;;;;9.45;2.90;;;;;;;23.60;57.80;101278.69;5006084;28;20038;-72
2022/08/20 09:39:50;;;;;;;;;;;;;;;;;;;;;
2022/08/20 09:46:14;;;;;;;9.20;3.08;;;;;;;23.36;59.50;101277.75;5008738;28;20071;-72
2022/08/20 09:48:41;;;;;;;15.32;2.72;;;;;;;23.41;57.14;101273.22;5042124;23;20042;-69
2022/08/20 09:51:07;;;;;;;7.22;2.15;;;;;;;23.90;56.04;101271.22;5030027;28;20091;-71
2022/08/20 09:53:33;;;;;;;9.95;2.38;;;;;;;24.22;54.85;101273.69;5034219;28;20033;-71
2022/08/20 09:55:59;;;;;;;12.90;3.17;;;;;;;24.73;54.10;101280.47;5033821;28;20079;-71
2022/08/20 09:58:53;;;;;;;14.38;3.25;;;;;;;24.96;54.31;101263.81;5038889;28;20044;-71
2022/08/20 10:01:21;;;;;;;17.10;3.15;;;;;;;24.82;54.39;101262.41;5026586;28;20028;-70
2022/08/20 10:03:47;;;;;;;14.02;3.55;;;;;;;24.26;54.69;101280.47;5036036;28;20021;-71
2022/08/20 10:06:15;;;;;;;13.35;3.42;;;;;;;24.48;53.93;101273.25;5038171;28;20037;-71
2022/08/20 10:08:41;;;;;;;13.65;3.58;;;;;;;24.40;54.38;101270.88;5035039;28;20109;-70
2022/08/20 10:11:07;;;;;;;17.55;2.83;;;;;;;24.33;53.17;101275.66;5037967;28;20029;-71
2022/08/20 10:13:32;;;;;;;16.48;3.85;;;;;;;24.53;53.87;101265.09;5028910;28;20037;-72
2022/08/20 10:15:58;;;;;;;12.98;3.00;;;;;;;24.40;54.17;101281.94;5029898;28;20172;-71
2022/08/20 10:18:23;;;;;;;11.75;2.72;;;;;;;24.40;54.80;101270.88;5044226;28;20047;-71
2022/08/20 10:20:49;;;;;;;16.25;3.17;;;;;;;24.12;54.76;101273.44;5033470;28;20407;-70
2022/08/20 10:23:15;;;;;;;11.88;2.65;;;;;;;24.34;54.92;101271.81;5032455;28;20551;-71
2022/08/20 10:25:42;;;;;;;12.40;3.10;;;;;;;24.00;55.89;101277.03;5029801;28;20117;-70
2022/08/20 10:28:07;;;;;;;13.43;2.80;;;;;;;24.53;54.73;101276.16;5028926;28;20787;-71
2022/08/20 10:30:34;;;;;;;10.98;2.83;;;;;;;24.89;53.20;101274.19;5043356;28;20039;-71
2022/08/20 10:32:59;;;;;;;11.27;2.63;;;;;;;24.90;52.79;101275.88;5036355;28;20025;-71
2022/08/20 10:35:25;;;;;;;12.20;3.70;;;;;;;24.69;53.65;101284.81;5037031;28;20025;-72
2022/08/20 10:37:50;;;;;;;19.02;3.45;;;;;;;24.56;53.81;101275.66;5036194;28;20067;-71
2022/08/20 10:40:16;;;;;;;12.63;2.90;;;;;;;24.87;52.69;101287.44;5042890;28;20044;-72
2022/08/20 10:42:42;;;;;;;13.65;2.92;;;;;;;24.79;52.83;101290.59;5037537;28;20061;-72
2022/08/20 10:45:09;;;;;;;13.52;2.72;;;;;;;24.93;50.29;101292.03;5037778;28;20116;-71
2022/08/20 10:47:35;;;;;;;13.88;2.92;;;;;;;25.45;50.12;101292.03;5028870;28;20025;-72
2022/08/20 10:50:04;;;;;;;16.92;3.20;;;;;;;24.95;52.37;101295.38;5032895;28;20036;-71
2022/08/20 10:52:29;;;;;;;13.15;3.55;;;;;;;24.44;54.04;101299.72;5039229;28;20025;-72
2022/08/20 10:54:55;;;;;;;13.90;3.17;;;;;;;24.74;54.13;101293.25;5029594;28;20140;-73
2022/08/20 10:57:23;;;;;;;20.65;3.38;;;;;;;25.08;52.35;101300.69;5031144;28;20059;-72
2022/08/20 10:59:51;;;;;;;13.48;3.35;;;;;;;24.75;52.81;101303.22;5039856;28;20025;-70
2022/08/20 11:02:17;;;;;;;13.45;3.63;;;;;;;24.46;53.91;101308.66;5037213;28;20106;-71
2022/08/20 11:04:43;;;;;;;18.20;3.40;;;;;;;24.61;53.53;101306.25;5030573;28;20175;-70
2022/08/20 11:07:31;;;;;;;14.13;2.90;;;;;;;24.10;54.18;101304.94;5035744;28;20040;-72
2022/08/20 11:09:57;;;;;;;9.43;2.35;;;;;;;24.15;54.67;101306.19;5033295;28;20029;-70
2022/08/20 11:12:23;;;;;;;13.80;3.28;;;;;;;24.26;54.36;101320.03;5034132;28;20035;-71
2022/08/20 11:14:55;;;;;;;9.63;3.00;;;;;;;23.92;54.21;101309.72;5027876;23;20046;-72
2022/08/20 11:17:29;;;;;;;11.50;2.60;;;;;;;23.90;55.18;101315.50;4998493;28;20022;-71
2022/08/20 11:19:58;;;;;;;15.65;3.22;;;;;;;23.74;55.91;101313.41;4995315;28;20164;-70
2022/08/20 11:22:25;;;;;;;14.98;3.20;;;;;;;24.36;54.32;101319.47;5015263;28;20030;-71
2022/08/20 11:24:51;;;;;;;10.55;3.13;;;;;;;23.94;55.11;101322.25;4999611;28;20038;-72
2022/08/20 11:27:29;;;;;;;11.82;3.17;;;;;;;24.05;54.27;101313.13;4984066;28;20491;-71
2022/08/20 11:29:55;;;;;;;14.95;2.65;;;;;;;23.97;55.22;101310.69;4979006;28;20022;-71
2022/08/20 11:32:22;;;;;;;16.33;3.25;;;;;;;23.94;55.17;101304.81;4981666;28;20036;-70
2022/08/20 11:34:48;;;;;;;12.10;2.80;;;;;;;23.89;54.11;101302.75;4978474;28;20030;-70
2022/08/20 11:37:15;;;;;;;13.57;2.92;;;;;;;24.18;53.99;101305.69;4976452;28;20022;-70
2022/08/20 11:39:41;;;;;;;12.82;3.38;;;;;;;24.09;54.18;101310.72;4979807;28;20034;-70
2022/08/20 11:42:07;;;;;;;12.20;3.70;;;;;;;23.63;55.35;101308.66;4976619;28;20030;-70